Report METAR

 

LIBV - Gioia Del Colle, Italy
Distance from station: SSE 15km
Dati ricevuti: 21/04/2024 16:55
Prev. Nuvoloso
Prev. Nuvoloso
 Vento da NNO
Vento: NNO 22 km/h
Temperatura: 13°C
P.to Rugiada: 10°C
Umidità: 82%
Pressione: 1011 hPa
Nuvole: Prev. Nuvoloso
Visibility: 10 km
Cloud details: Prev. Nuvoloso 762 m
2024/04/21 14:55 LIBV 211455Z 34012KT 9999 BKN025 13/10 Q1011
LIBD - Bari/Palese Macc, Italy
Distance from station: NNO 26km
Dati ricevuti: 21/04/2024 17:20
Poco Nuvoloso
Poco Nuvoloso
 Vento da N
Vento: N 11 km/h
Temperatura: 13°C
P.to Rugiada: 7°C
Umidità: 67%
Pressione: 1012 hPa
Nuvole: Poco Nuvoloso
Visibility: 10 km
Cloud details: Poco Nuvoloso 762 m
2024/04/21 15:20 LIBD 211520Z 36006KT 330V030 9999 FEW025 13/07 Q1012
LIBH - Marina Di Ginosa, Italy
Distance from station: S 53km
Dati ricevuti: 21/04/2024 16:55
Parz. nuvoloso
Parz. nuvoloso
 Vento da NNO
Vento: NNO 24 km/h
Temperatura: 17°C
P.to Rugiada: 5°C
Umidità: 45%
Pressione: 1011 hPa
Nuvole: Parz. nuvoloso
Visibility: 10 km
Cloud details: Parz. nuvoloso 610 m
2024/04/21 14:55 LIBH 211455Z 34013KT 300V100 9999 SCT020 17/05 Q1011 RMK SCT QUK 1 QUL 0 VIS MAR 30 KM VIS MIN 9999
 
LIBG - Grottaglie(Civ/A, Italy
Distance from station: SE 61km
Dati ricevuti: 21/04/2024 16:50
Poco Nuvoloso
Poco Nuvoloso
 Vento da N
Vento: N 28 km/h
Temperatura: 16°C
P.to Rugiada: 5°C
Umidità: 48%
Pressione: 1011 hPa
Nuvole: Poco Nuvoloso
Visibility: 10 km
Cloud details: Poco Nuvoloso 914 m
2024/04/21 14:50 LIBG 211450Z 35015KT 320V020 9999 FEW030 16/05 Q1011
LIBR - Brindisi/Casale, Italy
Distance from station: ESE 96km
Dati ricevuti: 21/04/2024 17:20
Poco Nuvoloso
Poco Nuvoloso
 Vento da NNO
Vento: NNO 31 km/h
Temperatura: 14°C
P.to Rugiada: 6°C
Umidità: 59%
Pressione: 1011 hPa
Nuvole: Poco Nuvoloso
Visibility: 10 km
Cloud details: Poco Nuvoloso 914 m
2024/04/21 15:20 LIBR 211520Z 33017KT 9999 FEW030 14/06 Q1011
LIBA - Amendola (it-Afb, Italy
Distance from station: NO 118km
Dati ricevuti: 21/04/2024 16:55
Parz. nuvoloso
Parz. nuvoloso
 Vento da NNO
Vento: NNO 24 km/h
Temperatura: 16°C
P.to Rugiada: 5°C
Umidità: 48%
Pressione: 1012 hPa
Nuvole: Parz. nuvoloso
Visibility: 10 km
Cloud details: Parz. nuvoloso 1219 m
2024/04/21 14:55 LIBA 211455Z 34013KT 9999 SCT040 16/05 Q1012
 
LIBF - Foggia/Gino Lisa, Italy
Distance from station: ONO 126km
Dati ricevuti: 21/04/2024 16:50
Parz. nuvoloso
Parz. nuvoloso
 Vento da N
Vento: N 24 km/h
Temperatura: 15°C
P.to Rugiada: 5°C
Umidità: 51%
Pressione: 1012 hPa
Nuvole: Parz. nuvoloso
Visibility: 10 km
Cloud details: Parz. nuvoloso 1219 m
2024/04/21 14:50 LIBF 211450Z 35013KT 9999 SCT040TCU 15/05 Q1012
LIBN - Lecce (it-Afb), Italy
Distance from station: SE 132km
Dati ricevuti: 21/04/2024 16:55
Parz. nuvoloso
Parz. nuvoloso
 Vento da NO
Vento: NO 28 km/h
Temperatura: 17°C
P.to Rugiada: 8°C
Umidità: 56%
Pressione: 1010 hPa
Nuvole: Parz. nuvoloso
Visibility: 10 km
Cloud details: Parz. nuvoloso 1219 m
2024/04/21 14:55 LIBN 211455Z 32015KT 9999 SCT040 17/08 Q1010